Time;durP1;ratioP1;P1;durP2;ratioP2;P2;SDS_P1;SDS_P2;PMS_P1;PMS_P2;Temp;Humidity;BMP_temperature;BMP_pressure;BME280_temperature;BME280_humidity;BME280_pressure;Samples;Min_cycle;Max_cycle;Signal;HPM_P1;HPM_P2
2022/11/05 00:28:15;;;;;;;16.00;4.20;;;13.80;83.80;;;;;;10824739;32;20063;-77
2022/11/05 00:34:19;;;;;;;5.55;3.87;;;13.70;83.90;;;;;;10826348;32;20043;-77
2022/11/05 00:40:21;;;;;;;3.55;3.03;;;13.70;84.10;;;;;;10821955;33;20048;-76
2022/11/05 00:46:23;;;;;;;3.92;2.75;;;13.60;84.10;;;;;;10825964;32;20032;-77
2022/11/05 00:58:47;;;;;;;3.58;2.12;;;13.60;83.70;;;;;;10866656;32;20310;-76
2022/11/05 01:04:49;;;;;;;5.05;2.60;;;13.50;83.70;;;;;;10865875;32;20422;-77
2022/11/05 01:10:54;;;;;;;3.17;2.42;;;13.40;83.80;;;;;;10866527;32;20019;-76
2022/11/05 01:16:55;;;;;;;3.10;2.05;;;13.40;83.90;;;;;;10866077;32;20027;-76
2022/11/05 01:22:58;;;;;;;3.72;2.30;;;13.40;83.90;;;;;;10873662;32;20012;-76
2022/11/05 01:29:00;;;;;;;4.00;2.90;;;13.30;84.00;;;;;;10872775;32;20385;-77
2022/11/05 01:35:05;;;;;;;3.00;2.22;;;13.30;84.10;;;;;;10872339;32;20020;-76
2022/11/05 01:41:08;;;;;;;3.12;2.33;;;13.30;84.10;;;;;;10873057;32;20019;-77
2022/11/05 01:47:31;;;;;;;2.08;1.87;;;13.30;83.80;;;;;;10872874;32;20038;-77
2022/11/05 01:53:50;;;;;;;2.35;1.98;;;13.30;83.70;;;;;;10872711;32;20043;-76
2022/11/05 01:59:56;;;;;;;3.10;1.92;;;13.20;83.80;;;;;;10872326;32;20050;-76
2022/11/05 02:06:14;;;;;;;2.10;1.77;;;13.20;83.80;;;;;;10872178;32;20054;-76
2022/11/05 02:12:18;;;;;;;3.30;2.15;;;13.20;83.90;;;;;;10871976;32;20019;-76
2022/11/05 02:18:39;;;;;;;6.75;2.08;;;13.20;83.80;;;;;;10871790;32;20446;-76
2022/11/05 02:24:51;;;;;;;2.58;1.85;;;13.20;83.80;;;;;;10870599;32;20046;-76
2022/11/05 02:31:00;;;;;;;1.45;1.20;;;13.20;83.80;;;;;;10870367;32;20055;-76
2022/11/05 02:37:59;;;;;;;3.03;1.90;;;13.20;83.90;;;;;;10871006;32;20023;-76
2022/11/05 02:44:23;;;;;;;1.60;1.50;;;13.10;84.10;;;;;;10867273;32;20024;-76
2022/11/05 02:50:47;;;;;;;2.25;1.37;;;13.10;84.20;;;;;;10870744;32;20351;-76
2022/11/05 02:56:52;;;;;;;3.37;1.92;;;13.00;84.30;;;;;;10870258;32;20110;-76
2022/11/05 03:03:06;;;;;;;1.00;1.00;;;13.00;84.40;;;;;;10870185;32;20077;-76
2022/11/05 03:09:42;;;;;;;1.60;1.50;;;13.00;84.50;;;;;;10865768;32;20027;-76
2022/11/05 03:16:02;;;;;;;0.85;0.52;;;13.00;84.40;;;;;;10869538;32;20086;-76
2022/11/05 03:22:07;;;;;;;;;;;13.00;84.50;;;;;;10869686;32;20020;-76
2022/11/05 03:28:11;;;;;;;1.08;0.68;;;12.90;84.50;;;;;;10869287;32;19935;-76
2022/11/05 03:34:16;;;;;;;5.72;1.55;;;12.80;84.60;;;;;;10868930;32;20024;-76
2022/11/05 03:40:22;;;;;;;1.52;0.88;;;12.80;84.70;;;;;;10865824;32;20023;-76
2022/11/05 03:46:30;;;;;;;0.75;0.75;;;12.80;84.70;;;;;;10865280;32;20474;-76
2022/11/05 03:52:58;;;;;;;1.25;0.68;;;12.80;84.60;;;;;;10868311;32;20020;-76
2022/11/05 03:59:01;;;;;;;0.40;0.40;;;12.80;84.60;;;;;;10868325;32;20050;-76
2022/11/05 04:05:04;;;;;;;0.45;0.45;;;12.80;84.80;;;;;;10868059;32;20065;-75
2022/11/05 04:17:28;;;;;;;1.83;1.40;;;12.70;84.80;;;;;;10867624;32;20019;-75
2022/11/05 04:36:32;;;;;;;1.05;1.05;;;12.70;84.90;;;;;;10867108;32;20023;-75
2022/11/05 04:42:34;;;;;;;1.00;0.95;;;12.70;84.60;;;;;;10866901;32;20024;-75
2022/11/05 04:48:52;;;;;;;1.00;0.95;;;12.50;84.70;;;;;;10866850;32;20098;-75
2022/11/05 04:54:55;;;;;;;1.33;1.23;;;12.50;84.70;;;;;;10874791;32;20073;-75
2022/11/05 05:00:57;;;;;;;0.70;0.70;;;12.50;84.70;;;;;;10879113;32;20046;-75
2022/11/05 05:07:01;;;;;;;0.73;0.60;;;12.50;84.70;;;;;;10878952;32;20023;-75
2022/11/05 05:13:03;;;;;;;1.15;0.88;;;12.40;84.70;;;;;;10878979;32;20053;-75
2022/11/05 05:19:05;;;;;;;1.62;0.90;;;12.30;84.70;;;;;;10878024;32;20071;-75
2022/11/05 05:25:08;;;;;;;1.42;0.95;;;12.40;84.80;;;;;;10878679;32;20046;-75
2022/11/05 05:31:10;;;;;;;0.90;0.88;;;12.40;84.70;;;;;;10877699;32;20027;-75
2022/11/05 05:37:13;;;;;;;0.90;0.77;;;12.40;84.70;;;;;;10878406;32;20050;-75
2022/11/05 05:43:15;;;;;;;0.95;0.88;;;12.30;84.70;;;;;;10878376;32;20081;-75
2022/11/05 05:49:17;;;;;;;1.10;1.00;;;12.30;84.70;;;;;;10878403;32;20396;-75
2022/11/05 05:55:20;;;;;;;0.77;0.57;;;12.30;84.70;;;;;;10878265;32;20058;-75
2022/11/05 06:01:37;;;;;;;0.40;0.40;;;12.30;84.50;;;;;;10877971;32;20043;-75
2022/11/05 06:07:39;;;;;;;0.88;0.85;;;12.30;84.50;;;;;;10873933;32;20024;-75
2022/11/05 06:13:41;;;;;;;1.05;1.05;;;12.20;84.40;;;;;;10871920;32;20054;-75
2022/11/05 06:19:44;;;;;;;0.70;0.70;;;12.20;84.40;;;;;;10871264;32;20043;-75
2022/11/05 06:25:46;;;;;;;1.17;1.00;;;12.10;84.40;;;;;;10867393;32;20028;-76
2022/11/05 06:31:48;;;;;;;0.90;0.90;;;12.00;84.50;;;;;;10871106;32;20062;-76
2022/11/05 06:37:50;;;;;;;1.40;1.30;;;12.00;84.50;;;;;;10870984;32;20031;-76
2022/11/05 06:43:52;;;;;;;1.02;0.93;;;12.00;84.40;;;;;;10870814;32;20023;-76
2022/11/05 06:49:56;;;;;;;1.92;1.73;;;12.00;84.40;;;;;;10866583;32;20092;-76
2022/11/05 06:56:04;;;;;;;1.40;1.30;;;12.10;84.40;;;;;;10870467;32;20028;-76
2022/11/05 07:02:10;;;;;;;1.98;1.65;;;12.10;84.40;;;;;;10870360;32;20016;-76
2022/11/05 07:08:16;;;;;;;2.03;1.10;;;12.20;84.50;;;;;;10865905;32;20027;-76
2022/11/05 07:14:19;;;;;;;2.37;1.10;;;12.10;84.40;;;;;;10869677;32;20031;-76
2022/11/05 07:20:21;;;;;;;1.40;1.05;;;12.00;84.30;;;;;;10869389;32;20040;-76
2022/11/05 07:26:23;;;;;;;1.27;1.12;;;11.90;84.50;;;;;;10869280;32;20046;-76
2022/11/05 07:32:26;;;;;;;1.80;1.62;;;11.90;84.70;;;;;;10868146;32;20090;-76
2022/11/05 07:38:28;;;;;;;1.85;1.62;;;12.00;84.70;;;;;;10874394;32;20039;-77
2022/11/05 07:44:30;;;;;;;1.95;1.75;;;12.00;84.60;;;;;;10867023;32;20341;-77
2022/11/05 07:50:35;;;;;;;1.27;1.00;;;12.10;84.70;;;;;;10871482;32;20066;-77
2022/11/05 07:56:37;;;;;;;2.45;1.58;;;12.20;84.60;;;;;;10868448;32;20027;-77
2022/11/05 08:02:40;;;;;;;1.65;1.10;;;12.30;84.70;;;;;;10879879;32;20058;-78
2022/11/05 08:08:42;;;;;;;3.20;2.22;;;12.40;84.60;;;;;;10879293;32;20348;-77
2022/11/05 08:14:44;;;;;;;3.25;2.25;;;12.40;84.60;;;;;;10866956;32;20032;-77
2022/11/05 08:20:47;;;;;;;1.77;1.35;;;12.50;84.70;;;;;;10866440;32;20384;-77
2022/11/05 08:26:49;;;;;;;1.67;1.50;;;12.60;84.60;;;;;;10902842;27;20061;-77
2022/11/05 08:33:10;;;;;;;1.48;1.20;;;12.60;84.80;;;;;;10904248;32;20042;-77
2022/11/05 08:39:24;;;;;;;2.55;1.65;;;12.70;84.80;;;;;;10904477;32;20106;-77
2022/11/05 08:45:28;;;;;;;1.25;0.93;;;12.70;84.60;;;;;;10900191;32;20023;-77
2022/11/05 08:51:30;;;;;;;1.90;1.00;;;12.80;84.70;;;;;;10903886;32;20015;-77
2022/11/05 08:57:35;;;;;;;1.55;1.27;;;12.90;84.60;;;;;;10903842;32;20020;-77
2022/11/05 09:03:37;;;;;;;5.60;1.77;;;13.10;84.60;;;;;;10903766;32;20372;-77
2022/11/05 09:09:42;;;;;;;1.77;1.52;;;13.20;84.50;;;;;;10904859;32;20093;-78
2022/11/05 09:15:59;;;;;;;2.72;1.77;;;13.30;84.30;;;;;;10903513;32;20391;-77
2022/11/05 09:22:02;;;;;;;1.77;1.02;;;13.40;83.60;;;;;;10902893;32;20363;-77
2022/11/05 09:28:24;;;;;;;3.20;1.73;;;13.60;83.30;;;;;;10903908;32;20027;-78
2022/11/05 09:34:26;;;;;;;2.15;1.75;;;13.70;82.10;;;;;;10903344;32;20049;-78
2022/11/05 09:40:32;;;;;;;2.35;1.60;;;13.90;81.60;;;;;;10907369;32;20049;-78
2022/11/05 09:47:10;;;;;;;3.80;1.92;;;14.00;80.80;;;;;;10896986;32;20041;-78
2022/11/05 09:53:15;;;;;;;1.33;1.15;;;14.20;80.50;;;;;;10722546;33;20280;-77
2022/11/05 09:59:20;;;;;;;2.12;1.45;;;14.20;80.30;;;;;;10715842;33;20291;-78
2022/11/05 10:05:24;;;;;;;14.35;2.90;;;14.30;80.00;;;;;;10719634;33;20032;-78
2022/11/05 10:11:33;;;;;;;2.92;1.52;;;14.50;80.20;;;;;;10718658;33;20029;-78
2022/11/05 10:17:37;;;;;;;1.33;1.00;;;14.60;79.30;;;;;;10721842;33;20091;-77
2022/11/05 10:23:42;;;;;;;1.37;1.27;;;14.70;79.40;;;;;;10729207;33;20526;-77
2022/11/05 10:29:44;;;;;;;0.80;0.80;;;14.80;78.60;;;;;;10844420;32;20035;-77
2022/11/05 10:35:53;;;;;;;1.85;1.02;;;15.00;78.10;;;;;;10871060;32;20058;-76
2022/11/05 10:42:14;;;;;;;1.27;0.80;;;15.20;77.10;;;;;;10869167;32;20066;-77
2022/11/05 10:55:41;;;;;;;0.77;0.77;;;15.70;75.20;;;;;;10897440;32;20027;-77
2022/11/05 11:01:44;;;;;;;0.80;0.80;;;16.10;73.70;;;;;;10788152;32;20044;-76
2022/11/05 11:08:09;;;;;;;0.70;0.70;;;16.40;73.20;;;;;;10791799;32;20028;-77
2022/11/05 11:14:11;;;;;;;0.68;0.68;;;16.70;72.70;;;;;;10683452;33;20096;-77
2022/11/05 11:20:25;;;;;;;0.60;0.60;;;16.90;72.10;;;;;;10681901;33;20029;-76
2022/11/05 11:26:34;;;;;;;0.50;0.50;;;17.00;70.20;;;;;;10682428;33;20033;-76
2022/11/05 11:32:38;;;;;;;0.65;0.65;;;17.10;69.20;;;;;;10679120;33;20379;-75
2022/11/05 11:38:42;;;;;;;2.03;0.77;;;17.10;68.30;;;;;;10715802;33;20063;-76
2022/11/05 11:44:48;;;;;;;0.93;0.93;;;17.10;67.30;;;;;;10718674;33;20398;-76
2022/11/05 11:50:50;;;;;;;3.75;1.02;;;17.10;66.90;;;;;;10852455;32;20368;-78
2022/11/05 11:56:52;;;;;;;2.55;0.77;;;17.10;66.30;;;;;;10901080;32;20031;-76
2022/11/05 12:02:59;;;;;;;1.27;1.00;;;17.00;65.10;;;;;;10901822;32;20031;-76
2022/11/05 12:09:36;;;;;;;0.85;0.85;;;17.00;64.70;;;;;;10891780;32;20015;-76
2022/11/05 12:15:58;;;;;;;3.22;1.08;;;16.90;64.40;;;;;;10753853;32;20028;-76
2022/11/05 12:22:29;;;;;;;0.50;0.50;;;16.90;64.50;;;;;;10752858;33;20055;-76
2022/11/05 12:28:49;;;;;;;1.25;0.68;;;16.80;63.20;;;;;;10749725;32;20032;-76
2022/11/05 12:35:07;;;;;;;0.98;0.98;;;16.80;63.00;;;;;;10752493;32;20028;-76
2022/11/05 12:41:39;;;;;;;2.03;1.00;;;16.70;63.10;;;;;;10749981;33;20071;-76
2022/11/05 12:48:04;;;;;;;1.23;1.08;;;16.70;63.40;;;;;;10630636;33;20060;-76
2022/11/05 12:54:06;;;;;;;0.93;0.73;;;16.80;63.90;;;;;;10750614;33;20060;-76
2022/11/05 13:00:19;;;;;;;0.73;0.73;;;16.80;63.80;;;;;;10751820;33;20151;-76
2022/11/05 13:06:46;;;;;;;0.68;0.60;;;16.80;63.80;;;;;;10751728;33;20040;-76
2022/11/05 13:13:03;;;;;;;0.60;0.60;;;16.90;62.70;;;;;;10750076;33;20016;-76
2022/11/05 13:19:12;;;;;;;0.70;0.62;;;16.80;62.50;;;;;;10759962;33;20044;-76
2022/11/05 13:25:44;;;;;;;0.50;0.50;;;16.80;62.60;;;;;;10891981;32;20312;-76
2022/11/05 13:32:01;;;;;;;1.05;0.82;;;16.80;62.90;;;;;;10910565;32;20050;-76
2022/11/05 13:44:38;;;;;;;3.65;0.60;;;16.80;62.30;;;;;;10910239;32;20035;-76
2022/11/05 13:51:03;;;;;;;1.00;0.80;;;16.80;61.90;;;;;;10910039;32;20031;-75
2022/11/05 13:57:39;;;;;;;1.08;0.60;;;16.90;60.90;;;;;;10896462;32;20035;-76
2022/11/05 14:03:47;;;;;;;0.98;0.75;;;16.90;61.00;;;;;;10905730;32;20031;-76
2022/11/05 14:10:19;;;;;;;3.33;1.02;;;17.00;60.70;;;;;;10909326;32;20027;-76
2022/11/05 14:16:24;;;;;;;0.95;0.85;;;17.00;60.90;;;;;;10923838;32;20035;-76
2022/11/05 14:22:32;;;;;;;0.80;0.80;;;17.00;61.30;;;;;;10936831;32;20035;-76
2022/11/05 14:28:35;;;;;;;0.65;0.45;;;17.00;61.00;;;;;;10894497;32;20027;-76
2022/11/05 14:35:02;;;;;;;1.55;0.68;;;17.00;61.20;;;;;;10907685;32;20097;-76
2022/11/05 14:41:08;;;;;;;0.75;0.75;;;17.00;61.50;;;;;;10907442;32;20050;-76
2022/11/05 14:47:23;;;;;;;0.37;0.37;;;16.90;61.80;;;;;;10907783;32;20411;-77
2022/11/05 14:53:34;;;;;;;0.85;0.70;;;17.10;62.20;;;;;;10893598;32;20035;-76
2022/11/05 15:00:03;;;;;;;0.73;0.70;;;17.30;62.20;;;;;;10907294;32;20070;-76
2022/11/05 15:06:30;;;;;;;0.70;0.70;;;17.20;62.70;;;;;;10907116;32;20395;-76
2022/11/05 15:12:44;;;;;;;1.08;0.80;;;17.00;63.60;;;;;;10906604;32;20028;-76
2022/11/05 15:18:47;;;;;;;1.10;1.00;;;16.90;63.90;;;;;;10905103;32;20078;-76
2022/11/05 15:24:50;;;;;;;0.65;0.65;;;16.70;64.80;;;;;;10906414;32;20042;-76
2022/11/05 15:30:57;;;;;;;3.78;1.30;;;16.50;65.50;;;;;;10892475;32;20031;-76
2022/11/05 15:37:11;;;;;;;1.90;0.90;;;16.20;65.90;;;;;;10903923;32;20046;-76
2022/11/05 15:43:18;;;;;;;1.90;1.00;;;16.00;66.30;;;;;;10904246;32;20024;-77
2022/11/05 15:49:20;;;;;;;1.12;1.00;;;15.80;66.90;;;;;;10890469;32;20419;-76
2022/11/05 15:55:25;;;;;;;7.07;1.73;;;15.70;67.40;;;;;;10904174;32;20431;-77
2022/11/05 16:01:30;;;;;;;3.22;1.40;;;15.60;67.80;;;;;;10890835;32;20345;-76
2022/11/05 16:07:32;;;;;;;2.17;1.60;;;15.40;68.30;;;;;;10899819;32;20188;-76
2022/11/05 16:13:37;;;;;;;5.15;1.83;;;15.30;68.90;;;;;;10903715;32;20050;-77
2022/11/05 16:19:41;;;;;;;2.90;2.03;;;15.20;69.30;;;;;;10903121;32;20370;-76
2022/11/05 16:25:44;;;;;;;2.03;1.23;;;15.10;69.90;;;;;;10435632;27;14315402;-77
2022/11/05 16:31:52;;;;;;;2.50;1.23;;;15.10;70.50;;;;;;10866539;32;20031;-76
2022/11/05 16:37:54;;;;;;;1.45;1.35;;;14.90;70.90;;;;;;10866179;32;20054;-77
2022/11/05 16:43:58;;;;;;;2.42;1.40;;;14.90;71.20;;;;;;10865833;32;20085;-77
2022/11/05 16:50:01;;;;;;;3.75;2.12;;;14.80;71.60;;;;;;10866086;32;20337;-77
2022/11/05 16:56:03;;;;;;;3.42;2.53;;;14.70;72.00;;;;;;10866633;32;20442;-75
2022/11/05 17:02:09;;;;;;;2.70;1.58;;;14.70;72.40;;;;;;10861214;32;20442;-75
2022/11/05 17:08:21;;;;;;;4.50;2.78;;;14.60;72.80;;;;;;10858118;32;20050;-75
2022/11/05 17:14:28;;;;;;;6.53;2.80;;;14.50;73.10;;;;;;10864656;32;20466;-75
2022/11/05 17:21:09;;;;;;;2.75;2.15;;;14.40;73.50;;;;;;10864756;32;20027;-75
2022/11/05 17:27:31;;;;;;;5.25;3.00;;;14.40;73.80;;;;;;10819909;33;20048;-75
2022/11/05 17:33:34;;;;;;;5.97;3.95;;;14.40;74.20;;;;;;10824932;32;20020;-75
2022/11/05 17:39:36;;;;;;;9.80;6.25;;;14.30;74.70;;;;;;10820448;33;20054;-75
2022/11/05 17:45:44;;;;;;;6.60;4.12;;;14.30;74.80;;;;;;10822283;33;20350;-75
2022/11/05 17:51:46;;;;;;;6.80;4.12;;;14.30;75.00;;;;;;10825773;33;20024;-75
2022/11/05 17:57:50;;;;;;;8.27;5.65;;;14.20;75.20;;;;;;10825568;33;20054;-76
2022/11/05 18:04:27;;;;;;;10.48;7.07;;;14.10;75.30;;;;;;10859882;32;20024;-76
2022/11/05 18:10:30;;;;;;;6.53;5.00;;;14.10;75.40;;;;;;10872477;32;20038;-76
2022/11/05 18:16:44;;;;;;;9.00;6.37;;;14.00;75.60;;;;;;10872084;32;20032;-76
2022/11/05 18:22:50;;;;;;;10.35;6.78;;;13.90;75.90;;;;;;10871858;32;20475;-76
2022/11/05 18:28:53;;;;;;;6.68;5.00;;;13.90;76.60;;;;;;10871457;32;20016;-76
2022/11/05 18:34:55;;;;;;;8.65;6.05;;;13.90;76.80;;;;;;10871384;32;20317;-76
2022/11/05 18:41:05;;;;;;;10.57;7.22;;;13.90;77.60;;;;;;10866874;32;20364;-76
2022/11/05 18:47:07;;;;;;;10.23;5.65;;;13.90;77.80;;;;;;10870621;32;20051;-76
2022/11/05 18:53:09;;;;;;;10.50;6.68;;;13.80;77.90;;;;;;10866705;32;20396;-76
2022/11/05 18:59:13;;;;;;;6.07;4.50;;;13.80;77.90;;;;;;10865554;32;20035;-76
2022/11/05 19:05:16;;;;;;;8.85;6.12;;;13.70;78.00;;;;;;10870615;32;20042;-76
2022/11/05 19:11:20;;;;;;;9.25;6.60;;;13.70;78.10;;;;;;10869771;32;20328;-76
2022/11/05 19:17:22;;;;;;;8.88;6.00;;;13.70;78.40;;;;;;10869189;32;20036;-76
2022/11/05 19:23:24;;;;;;;10.00;6.95;;;13.70;78.50;;;;;;10869335;32;20400;-76
2022/11/05 19:29:28;;;;;;;8.90;7.75;;;13.70;78.70;;;;;;10867327;32;20082;-76
2022/11/05 19:35:30;;;;;;;12.13;8.25;;;13.60;79.10;;;;;;10868667;32;20019;-76
2022/11/05 19:41:32;;;;;;;11.77;7.82;;;13.60;79.40;;;;;;10867992;32;20019;-76
2022/11/05 19:47:34;;;;;;;11.07;7.82;;;13.50;79.60;;;;;;10868796;32;20082;-76
2022/11/05 19:53:38;;;;;;;7.97;5.70;;;13.40;79.70;;;;;;10867706;32;20050;-76
2022/11/05 19:59:40;;;;;;;10.23;7.70;;;13.30;80.00;;;;;;10868416;32;20039;-76
2022/11/05 20:05:42;;;;;;;10.75;7.07;;;13.30;80.00;;;;;;10868236;32;20015;-76
2022/11/05 20:11:45;;;;;;;13.48;10.57;;;13.30;79.80;;;;;;10868086;32;20004;-76
2022/11/05 20:17:51;;;;;;;10.65;8.18;;;13.20;79.80;;;;;;10867890;32;20071;-76
2022/11/05 20:23:57;;;;;;;10.80;6.57;;;13.10;79.90;;;;;;10867501;32;20015;-76
2022/11/05 20:30:01;;;;;;;11.40;8.70;;;13.10;79.90;;;;;;10867535;32;20038;-76
2022/11/05 20:36:06;;;;;;;11.70;9.38;;;13.00;79.80;;;;;;10867258;32;20023;-76
2022/11/05 20:42:08;;;;;;;9.82;7.10;;;13.00;79.90;;;;;;10862259;32;20039;-76
2022/11/05 20:48:12;;;;;;;15.32;9.30;;;12.90;80.00;;;;;;10866135;32;20388;-76
2022/11/05 20:54:14;;;;;;;11.65;7.37;;;12.90;80.00;;;;;;10866929;32;20042;-76
2022/11/05 21:00:16;;;;;;;12.68;8.32;;;12.90;80.00;;;;;;10866320;32;20027;-76
2022/11/05 21:06:38;;;;;;;15.43;10.77;;;12.80;80.00;;;;;;10862634;32;20367;-76
2022/11/05 21:13:09;;;;;;;15.82;13.32;;;12.70;80.10;;;;;;10866581;32;20019;-75
2022/11/05 21:19:11;;;;;;;14.82;12.48;;;12.60;80.20;;;;;;10866342;32;20035;-76
2022/11/05 21:25:13;;;;;;;14.82;12.25;;;12.50;80.50;;;;;;10866308;32;20341;-76
2022/11/05 21:31:15;;;;;;;13.95;11.00;;;12.60;80.80;;;;;;10862639;32;20020;-76
2022/11/05 21:37:22;;;;;;;12.63;10.60;;;12.50;80.80;;;;;;10870921;32;20027;-76
2022/11/05 21:43:24;;;;;;;11.50;8.93;;;12.40;80.80;;;;;;10873259;32;20042;-76
2022/11/05 21:49:26;;;;;;;15.20;11.98;;;12.30;81.00;;;;;;10873038;32;20045;-76
2022/11/05 22:01:49;;;;;;;12.82;11.30;;;12.20;81.10;;;;;;10872494;32;20032;-76
2022/11/05 22:07:53;;;;;;;12.27;7.80;;;12.20;81.20;;;;;;10872427;32;20020;-76
2022/11/05 22:13:56;;;;;;;12.75;10.88;;;12.20;81.10;;;;;;10868893;32;20046;-76
2022/11/05 22:19:58;;;;;;;9.98;8.02;;;12.20;81.00;;;;;;10871904;32;20085;-76
2022/11/05 22:26:01;;;;;;;12.50;8.88;;;12.10;81.00;;;;;;10866635;32;20023;-76
2022/11/05 22:32:04;;;;;;;11.90;8.43;;;12.10;81.00;;;;;;10871553;32;20026;-76
2022/11/05 22:38:06;;;;;;;13.45;7.90;;;12.00;81.20;;;;;;10871284;32;20050;-76
2022/11/05 22:44:09;;;;;;;26.25;9.80;;;12.00;81.10;;;;;;10868085;32;20047;-76
2022/11/05 22:50:11;;;;;;;13.52;9.63;;;12.00;81.00;;;;;;10870048;32;20388;-76
2022/11/05 22:56:16;;;;;;;12.25;9.45;;;11.90;81.10;;;;;;10870735;32;20305;-76
2022/11/05 23:02:18;;;;;;;13.88;8.70;;;12.00;81.10;;;;;;10870264;32;20066;-76
2022/11/05 23:14:41;;;;;;;16.20;10.75;;;11.80;81.10;;;;;;10870061;32;20020;-76
2022/11/05 23:27:04;;;;;;;13.35;8.75;;;11.70;81.50;;;;;;10869529;32;20039;-76
2022/11/05 23:33:07;;;;;;;11.05;8.82;;;11.70;81.60;;;;;;10868287;32;20012;-76
2022/11/05 23:39:09;;;;;;;14.95;9.30;;;11.70;81.50;;;;;;10869188;32;20019;-76
2022/11/05 23:51:42;;;;;;;11.50;8.70;;;11.60;81.30;;;;;;10868836;32;20015;-76
2022/11/05 23:57:44;;;;;;;10.93;7.40;;;11.50;81.30;;;;;;10868387;32;20012;-76
